sensor_id;sensor_type;location;lat;lon;timestamp;P1;durP1;ratioP1;P2;durP2;ratioP2
43014;SDS011;28637;50.554;7.032;2022-10-17T00:03:20;4.78;;;3.45;;
43014;SDS011;28637;50.554;7.032;2022-10-17T00:08:20;9.93;;;3.53;;
43014;SDS011;28637;50.554;7.032;2022-10-17T00:13:21;3.70;;;3.37;;
43014;SDS011;28637;50.554;7.032;2022-10-17T00:18:22;4.43;;;3.20;;
43014;SDS011;28637;50.554;7.032;2022-10-17T00:23:23;5.00;;;3.50;;
43014;SDS011;28637;50.554;7.032;2022-10-17T00:28:26;4.47;;;3.60;;
43014;SDS011;28637;50.554;7.032;2022-10-17T00:33:27;4.00;;;3.10;;
43014;SDS011;28637;50.554;7.032;2022-10-17T00:38:28;4.53;;;3.28;;
43014;SDS011;28637;50.554;7.032;2022-10-17T00:43:30;4.37;;;3.10;;
43014;SDS011;28637;50.554;7.032;2022-10-17T00:48:50;4.70;;;3.50;;
43014;SDS011;28637;50.554;7.032;2022-10-17T00:53:53;7.78;;;3.65;;
43014;SDS011;28637;50.554;7.032;2022-10-17T00:58:54;5.32;;;3.53;;
43014;SDS011;28637;50.554;7.032;2022-10-17T01:03:55;5.13;;;3.80;;
43014;SDS011;28637;50.554;7.032;2022-10-17T01:08:56;6.73;;;3.43;;
43014;SDS011;28637;50.554;7.032;2022-10-17T01:19:38;4.10;;;3.22;;
43014;SDS011;28637;50.554;7.032;2022-10-17T01:46:04;7.60;;;3.33;;
43014;SDS011;28637;50.554;7.032;2022-10-17T01:51:21;3.95;;;3.20;;
43014;SDS011;28637;50.554;7.032;2022-10-17T01:56:28;7.85;;;3.55;;
43014;SDS011;28637;50.554;7.032;2022-10-17T02:01:31;6.70;;;3.20;;
43014;SDS011;28637;50.554;7.032;2022-10-17T02:06:35;9.10;;;3.33;;
43014;SDS011;28637;50.554;7.032;2022-10-17T02:11:36;5.53;;;3.55;;
43014;SDS011;28637;50.554;7.032;2022-10-17T02:16:38;6.60;;;3.23;;
43014;SDS011;28637;50.554;7.032;2022-10-17T02:21:48;5.95;;;3.38;;
43014;SDS011;28637;50.554;7.032;2022-10-17T02:27:05;9.93;;;3.90;;
43014;SDS011;28637;50.554;7.032;2022-10-17T02:32:34;7.68;;;3.50;;
43014;SDS011;28637;50.554;7.032;2022-10-17T02:37:43;6.28;;;3.38;;
43014;SDS011;28637;50.554;7.032;2022-10-17T02:42:46;6.95;;;3.53;;
43014;SDS011;28637;50.554;7.032;2022-10-17T02:47:50;4.70;;;3.20;;
43014;SDS011;28637;50.554;7.032;2022-10-17T02:53:00;7.47;;;3.33;;
43014;SDS011;28637;50.554;7.032;2022-10-17T02:58:10;6.32;;;3.33;;
43014;SDS011;28637;50.554;7.032;2022-10-17T03:03:23;4.28;;;3.30;;
43014;SDS011;28637;50.554;7.032;2022-10-17T03:08:25;5.00;;;3.17;;
43014;SDS011;28637;50.554;7.032;2022-10-17T03:13:26;9.97;;;3.03;;
43014;SDS011;28637;50.554;7.032;2022-10-17T03:18:29;6.97;;;3.55;;
43014;SDS011;28637;50.554;7.032;2022-10-17T03:28:30;5.27;;;3.27;;
43014;SDS011;28637;50.554;7.032;2022-10-17T03:33:31;7.07;;;3.50;;
43014;SDS011;28637;50.554;7.032;2022-10-17T03:38:32;7.07;;;3.30;;
43014;SDS011;28637;50.554;7.032;2022-10-17T03:43:33;10.98;;;3.50;;
43014;SDS011;28637;50.554;7.032;2022-10-17T03:48:34;4.30;;;3.10;;
43014;SDS011;28637;50.554;7.032;2022-10-17T03:53:35;8.93;;;3.20;;
43014;SDS011;28637;50.554;7.032;2022-10-17T03:58:35;6.40;;;3.10;;
43014;SDS011;28637;50.554;7.032;2022-10-17T04:03:36;4.57;;;3.17;;
43014;SDS011;28637;50.554;7.032;2022-10-17T04:08:38;8.18;;;3.20;;
43014;SDS011;28637;50.554;7.032;2022-10-17T04:13:38;6.47;;;3.53;;
43014;SDS011;28637;50.554;7.032;2022-10-17T04:18:40;4.47;;;3.10;;
43014;SDS011;28637;50.554;7.032;2022-10-17T04:23:41;5.25;;;3.30;;
43014;SDS011;28637;50.554;7.032;2022-10-17T04:28:41;7.90;;;3.40;;
43014;SDS011;28637;50.554;7.032;2022-10-17T04:33:42;4.50;;;3.30;;
43014;SDS011;28637;50.554;7.032;2022-10-17T04:38:45;5.10;;;3.08;;
43014;SDS011;28637;50.554;7.032;2022-10-17T04:43:45;6.80;;;3.50;;
43014;SDS011;28637;50.554;7.032;2022-10-17T04:48:46;7.70;;;3.40;;
43014;SDS011;28637;50.554;7.032;2022-10-17T04:53:47;7.15;;;3.30;;
43014;SDS011;28637;50.554;7.032;2022-10-17T04:58:48;8.23;;;3.37;;
43014;SDS011;28637;50.554;7.032;2022-10-17T05:03:50;6.82;;;3.00;;
43014;SDS011;28637;50.554;7.032;2022-10-17T05:08:51;6.05;;;3.15;;
43014;SDS011;28637;50.554;7.032;2022-10-17T05:13:52;6.13;;;3.40;;
43014;SDS011;28637;50.554;7.032;2022-10-17T05:18:55;3.50;;;3.20;;
43014;SDS011;28637;50.554;7.032;2022-10-17T05:23:57;5.82;;;2.97;;
43014;SDS011;28637;50.554;7.032;2022-10-17T05:29:01;5.80;;;3.20;;
43014;SDS011;28637;50.554;7.032;2022-10-17T05:34:02;6.82;;;3.22;;
43014;SDS011;28637;50.554;7.032;2022-10-17T05:39:03;8.20;;;3.17;;
43014;SDS011;28637;50.554;7.032;2022-10-17T05:44:04;3.53;;;2.70;;
43014;SDS011;28637;50.554;7.032;2022-10-17T05:49:04;4.90;;;3.07;;
43014;SDS011;28637;50.554;7.032;2022-10-17T05:54:05;5.60;;;3.30;;
43014;SDS011;28637;50.554;7.032;2022-10-17T05:59:06;7.43;;;2.97;;
43014;SDS011;28637;50.554;7.032;2022-10-17T06:04:07;4.13;;;3.27;;
43014;SDS011;28637;50.554;7.032;2022-10-17T06:09:08;4.27;;;3.00;;
43014;SDS011;28637;50.554;7.032;2022-10-17T06:14:08;5.13;;;3.20;;
43014;SDS011;28637;50.554;7.032;2022-10-17T06:19:09;5.20;;;3.10;;
43014;SDS011;28637;50.554;7.032;2022-10-17T06:24:10;4.70;;;2.80;;
43014;SDS011;28637;50.554;7.032;2022-10-17T06:29:11;8.30;;;3.57;;
43014;SDS011;28637;50.554;7.032;2022-10-17T06:34:11;4.23;;;2.83;;
43014;SDS011;28637;50.554;7.032;2022-10-17T06:39:12;6.40;;;2.87;;
43014;SDS011;28637;50.554;7.032;2022-10-17T06:44:13;7.07;;;3.20;;
43014;SDS011;28637;50.554;7.032;2022-10-17T06:49:14;5.33;;;3.10;;
43014;SDS011;28637;50.554;7.032;2022-10-17T06:54:14;5.40;;;3.03;;
43014;SDS011;28637;50.554;7.032;2022-10-17T06:59:15;6.00;;;3.10;;
43014;SDS011;28637;50.554;7.032;2022-10-17T07:04:16;8.77;;;3.10;;
43014;SDS011;28637;50.554;7.032;2022-10-17T07:09:16;6.20;;;3.00;;
43014;SDS011;28637;50.554;7.032;2022-10-17T07:14:18;6.07;;;3.40;;
43014;SDS011;28637;50.554;7.032;2022-10-17T07:19:18;5.60;;;3.00;;
43014;SDS011;28637;50.554;7.032;2022-10-17T07:24:19;6.30;;;3.20;;
43014;SDS011;28637;50.554;7.032;2022-10-17T07:29:20;4.03;;;3.00;;
43014;SDS011;28637;50.554;7.032;2022-10-17T07:34:20;4.87;;;3.00;;
43014;SDS011;28637;50.554;7.032;2022-10-17T07:39:21;6.37;;;3.10;;
43014;SDS011;28637;50.554;7.032;2022-10-17T07:44:22;6.37;;;3.07;;
43014;SDS011;28637;50.554;7.032;2022-10-17T07:49:22;6.03;;;2.83;;
43014;SDS011;28637;50.554;7.032;2022-10-17T07:54:23;3.67;;;2.80;;
43014;SDS011;28637;50.554;7.032;2022-10-17T07:59:24;3.40;;;3.00;;
43014;SDS011;28637;50.554;7.032;2022-10-17T08:04:25;3.17;;;2.87;;
43014;SDS011;28637;50.554;7.032;2022-10-17T08:09:26;6.30;;;3.10;;
43014;SDS011;28637;50.554;7.032;2022-10-17T08:14:27;5.20;;;3.07;;
43014;SDS011;28637;50.554;7.032;2022-10-17T08:19:27;4.20;;;2.73;;
43014;SDS011;28637;50.554;7.032;2022-10-17T08:24:28;5.07;;;2.87;;
43014;SDS011;28637;50.554;7.032;2022-10-17T08:29:29;6.60;;;3.20;;
43014;SDS011;28637;50.554;7.032;2022-10-17T08:34:32;4.93;;;2.95;;
43014;SDS011;28637;50.554;7.032;2022-10-17T08:39:32;6.78;;;3.03;;
43014;SDS011;28637;50.554;7.032;2022-10-17T08:50:11;5.68;;;3.05;;
43014;SDS011;28637;50.554;7.032;2022-10-17T08:55:34;5.50;;;3.10;;
43014;SDS011;28637;50.554;7.032;2022-10-17T09:00:37;5.28;;;3.00;;
43014;SDS011;28637;50.554;7.032;2022-10-17T09:05:46;6.95;;;2.88;;
43014;SDS011;28637;50.554;7.032;2022-10-17T09:22:13;8.27;;;3.22;;
43014;SDS011;28637;50.554;7.032;2022-10-17T09:27:21;5.78;;;3.10;;
43014;SDS011;28637;50.554;7.032;2022-10-17T09:32:43;5.60;;;2.83;;
43014;SDS011;28637;50.554;7.032;2022-10-17T09:37:46;4.78;;;2.80;;
43014;SDS011;28637;50.554;7.032;2022-10-17T09:42:50;7.75;;;3.30;;
43014;SDS011;28637;50.554;7.032;2022-10-17T09:48:25;8.27;;;2.83;;
43014;SDS011;28637;50.554;7.032;2022-10-17T09:53:29;5.28;;;2.88;;
43014;SDS011;28637;50.554;7.032;2022-10-17T09:58:48;5.63;;;2.97;;
43014;SDS011;28637;50.554;7.032;2022-10-17T10:04:15;6.10;;;3.15;;
43014;SDS011;28637;50.554;7.032;2022-10-17T10:09:19;5.07;;;3.00;;
43014;SDS011;28637;50.554;7.032;2022-10-17T10:14:35;6.28;;;2.95;;
43014;SDS011;28637;50.554;7.032;2022-10-17T10:19:38;4.43;;;2.55;;
43014;SDS011;28637;50.554;7.032;2022-10-17T10:30:24;3.40;;;2.40;;
43014;SDS011;28637;50.554;7.032;2022-10-17T10:35:35;5.70;;;3.10;;
43014;SDS011;28637;50.554;7.032;2022-10-17T10:40:47;4.72;;;2.97;;
43014;SDS011;28637;50.554;7.032;2022-10-17T10:45:50;5.88;;;2.80;;
43014;SDS011;28637;50.554;7.032;2022-10-17T10:50:52;3.92;;;2.63;;
43014;SDS011;28637;50.554;7.032;2022-10-17T10:55:59;6.95;;;2.67;;
43014;SDS011;28637;50.554;7.032;2022-10-17T11:01:12;9.85;;;3.00;;
43014;SDS011;28637;50.554;7.032;2022-10-17T11:06:34;6.82;;;2.75;;
43014;SDS011;28637;50.554;7.032;2022-10-17T11:11:41;7.18;;;2.90;;
43014;SDS011;28637;50.554;7.032;2022-10-17T11:16:52;5.82;;;3.00;;
43014;SDS011;28637;50.554;7.032;2022-10-17T11:22:15;6.97;;;2.60;;
43014;SDS011;28637;50.554;7.032;2022-10-17T11:27:28;4.85;;;2.58;;
43014;SDS011;28637;50.554;7.032;2022-10-17T11:32:34;8.63;;;2.63;;
43014;SDS011;28637;50.554;7.032;2022-10-17T11:37:47;7.78;;;2.53;;
43014;SDS011;28637;50.554;7.032;2022-10-17T11:53:48;6.32;;;2.58;;
43014;SDS011;28637;50.554;7.032;2022-10-17T12:14:45;8.05;;;2.55;;
43014;SDS011;28637;50.554;7.032;2022-10-17T12:19:46;4.10;;;2.42;;
43014;SDS011;28637;50.554;7.032;2022-10-17T12:30:00;4.97;;;2.58;;
43014;SDS011;28637;50.554;7.032;2022-10-17T12:35:04;5.18;;;2.88;;
43014;SDS011;28637;50.554;7.032;2022-10-17T12:51:03;4.97;;;2.38;;
43014;SDS011;28637;50.554;7.032;2022-10-17T12:56:08;6.47;;;2.85;;
43014;SDS011;28637;50.554;7.032;2022-10-17T13:01:13;5.35;;;2.60;;
43014;SDS011;28637;50.554;7.032;2022-10-17T13:06:32;7.50;;;2.70;;
43014;SDS011;28637;50.554;7.032;2022-10-17T13:11:39;5.43;;;2.40;;
43014;SDS011;28637;50.554;7.032;2022-10-17T13:22:01;4.43;;;2.45;;
43014;SDS011;28637;50.554;7.032;2022-10-17T13:27:02;9.32;;;2.50;;
43014;SDS011;28637;50.554;7.032;2022-10-17T13:32:04;6.65;;;2.25;;
43014;SDS011;28637;50.554;7.032;2022-10-17T13:37:06;7.57;;;2.53;;
43014;SDS011;28637;50.554;7.032;2022-10-17T13:42:24;7.15;;;2.58;;
43014;SDS011;28637;50.554;7.032;2022-10-17T13:47:29;6.25;;;2.40;;
43014;SDS011;28637;50.554;7.032;2022-10-17T13:52:33;4.60;;;2.20;;
43014;SDS011;28637;50.554;7.032;2022-10-17T13:57:33;6.00;;;2.20;;
43014;SDS011;28637;50.554;7.032;2022-10-17T14:02:34;6.15;;;2.38;;
43014;SDS011;28637;50.554;7.032;2022-10-17T14:07:45;6.20;;;2.20;;
43014;SDS011;28637;50.554;7.032;2022-10-17T14:12:59;7.60;;;1.92;;
43014;SDS011;28637;50.554;7.032;2022-10-17T14:18:04;4.40;;;1.77;;
43014;SDS011;28637;50.554;7.032;2022-10-17T14:23:25;8.55;;;1.83;;
43014;SDS011;28637;50.554;7.032;2022-10-17T14:28:30;5.35;;;1.90;;
43014;SDS011;28637;50.554;7.032;2022-10-17T14:33:30;6.03;;;1.90;;
43014;SDS011;28637;50.554;7.032;2022-10-17T14:38:31;8.80;;;2.00;;
43014;SDS011;28637;50.554;7.032;2022-10-17T14:43:32;5.95;;;1.98;;
43014;SDS011;28637;50.554;7.032;2022-10-17T14:53:34;9.23;;;2.30;;
43014;SDS011;28637;50.554;7.032;2022-10-17T14:58:35;4.03;;;2.03;;
43014;SDS011;28637;50.554;7.032;2022-10-17T15:03:36;5.23;;;1.80;;
43014;SDS011;28637;50.554;7.032;2022-10-17T15:08:36;6.60;;;1.73;;
43014;SDS011;28637;50.554;7.032;2022-10-17T15:13:37;6.40;;;1.83;;
43014;SDS011;28637;50.554;7.032;2022-10-17T15:18:38;3.20;;;1.57;;
43014;SDS011;28637;50.554;7.032;2022-10-17T15:23:39;8.87;;;2.10;;
43014;SDS011;28637;50.554;7.032;2022-10-17T15:28:41;3.88;;;1.70;;
43014;SDS011;28637;50.554;7.032;2022-10-17T15:33:42;6.57;;;2.08;;
43014;SDS011;28637;50.554;7.032;2022-10-17T15:38:44;5.93;;;1.88;;
43014;SDS011;28637;50.554;7.032;2022-10-17T15:43:45;4.45;;;2.00;;
43014;SDS011;28637;50.554;7.032;2022-10-17T15:48:47;6.97;;;2.30;;
43014;SDS011;28637;50.554;7.032;2022-10-17T15:53:48;8.05;;;2.25;;
43014;SDS011;28637;50.554;7.032;2022-10-17T15:58:49;3.38;;;1.85;;
43014;SDS011;28637;50.554;7.032;2022-10-17T16:03:50;6.50;;;2.20;;
43014;SDS011;28637;50.554;7.032;2022-10-17T16:13:52;4.37;;;1.80;;
43014;SDS011;28637;50.554;7.032;2022-10-17T16:18:55;6.90;;;1.92;;
43014;SDS011;28637;50.554;7.032;2022-10-17T16:23:56;5.95;;;2.00;;
43014;SDS011;28637;50.554;7.032;2022-10-17T16:28:57;5.05;;;1.98;;
43014;SDS011;28637;50.554;7.032;2022-10-17T16:34:01;8.32;;;2.00;;
43014;SDS011;28637;50.554;7.032;2022-10-17T16:39:03;15.18;;;2.20;;
43014;SDS011;28637;50.554;7.032;2022-10-17T16:44:07;7.93;;;2.13;;
43014;SDS011;28637;50.554;7.032;2022-10-17T16:49:12;7.68;;;2.17;;
43014;SDS011;28637;50.554;7.032;2022-10-17T16:54:15;4.55;;;1.90;;
43014;SDS011;28637;50.554;7.032;2022-10-17T16:59:15;7.10;;;2.00;;
43014;SDS011;28637;50.554;7.032;2022-10-17T17:04:16;7.60;;;2.20;;
43014;SDS011;28637;50.554;7.032;2022-10-17T17:09:17;10.43;;;2.22;;
43014;SDS011;28637;50.554;7.032;2022-10-17T17:14:18;11.30;;;2.30;;
43014;SDS011;28637;50.554;7.032;2022-10-17T17:19:18;6.43;;;2.30;;
43014;SDS011;28637;50.554;7.032;2022-10-17T17:24:19;5.53;;;2.20;;
43014;SDS011;28637;50.554;7.032;2022-10-17T17:29:20;5.55;;;2.28;;
43014;SDS011;28637;50.554;7.032;2022-10-17T17:34:22;4.07;;;2.70;;
43014;SDS011;28637;50.554;7.032;2022-10-17T17:39:23;4.87;;;2.17;;
43014;SDS011;28637;50.554;7.032;2022-10-17T17:44:23;7.40;;;2.60;;
43014;SDS011;28637;50.554;7.032;2022-10-17T17:49:24;6.57;;;2.30;;
43014;SDS011;28637;50.554;7.032;2022-10-17T17:54:25;4.40;;;2.43;;
43014;SDS011;28637;50.554;7.032;2022-10-17T17:59:26;7.77;;;2.17;;
43014;SDS011;28637;50.554;7.032;2022-10-17T18:04:26;6.07;;;2.20;;
43014;SDS011;28637;50.554;7.032;2022-10-17T18:09:27;5.63;;;2.43;;
43014;SDS011;28637;50.554;7.032;2022-10-17T18:14:28;6.83;;;3.00;;
43014;SDS011;28637;50.554;7.032;2022-10-17T18:19:28;7.30;;;2.40;;
43014;SDS011;28637;50.554;7.032;2022-10-17T18:24:29;4.27;;;2.13;;
43014;SDS011;28637;50.554;7.032;2022-10-17T18:29:30;3.67;;;2.20;;
43014;SDS011;28637;50.554;7.032;2022-10-17T18:34:31;4.45;;;2.50;;
43014;SDS011;28637;50.554;7.032;2022-10-17T18:39:32;6.40;;;2.30;;
43014;SDS011;28637;50.554;7.032;2022-10-17T18:44:33;6.80;;;2.78;;
43014;SDS011;28637;50.554;7.032;2022-10-17T18:49:34;6.57;;;3.40;;
43014;SDS011;28637;50.554;7.032;2022-10-17T18:54:35;6.00;;;3.00;;
43014;SDS011;28637;50.554;7.032;2022-10-17T18:59:36;7.73;;;3.20;;
43014;SDS011;28637;50.554;7.032;2022-10-17T19:04:37;6.30;;;3.10;;
43014;SDS011;28637;50.554;7.032;2022-10-17T19:09:39;9.50;;;3.40;;
43014;SDS011;28637;50.554;7.032;2022-10-17T19:14:39;8.57;;;3.07;;
43014;SDS011;28637;50.554;7.032;2022-10-17T19:19:40;5.73;;;3.10;;
43014;SDS011;28637;50.554;7.032;2022-10-17T19:24:41;5.68;;;3.28;;
43014;SDS011;28637;50.554;7.032;2022-10-17T19:29:42;6.20;;;3.30;;
43014;SDS011;28637;50.554;7.032;2022-10-17T19:34:43;5.47;;;3.83;;
43014;SDS011;28637;50.554;7.032;2022-10-17T19:39:43;7.37;;;3.97;;
43014;SDS011;28637;50.554;7.032;2022-10-17T19:44:44;7.30;;;3.60;;
43014;SDS011;28637;50.554;7.032;2022-10-17T19:49:45;5.37;;;3.13;;
43014;SDS011;28637;50.554;7.032;2022-10-17T19:54:46;5.53;;;3.60;;
43014;SDS011;28637;50.554;7.032;2022-10-17T19:59:47;7.10;;;3.20;;
43014;SDS011;28637;50.554;7.032;2022-10-17T20:04:48;5.20;;;3.30;;
43014;SDS011;28637;50.554;7.032;2022-10-17T20:09:48;9.60;;;4.07;;
43014;SDS011;28637;50.554;7.032;2022-10-17T20:14:49;5.57;;;3.70;;
43014;SDS011;28637;50.554;7.032;2022-10-17T20:19:51;6.27;;;3.80;;
43014;SDS011;28637;50.554;7.032;2022-10-17T20:24:52;4.95;;;3.90;;
43014;SDS011;28637;50.554;7.032;2022-10-17T20:29:52;6.10;;;4.10;;
43014;SDS011;28637;50.554;7.032;2022-10-17T20:34:53;8.07;;;4.03;;
43014;SDS011;28637;50.554;7.032;2022-10-17T20:39:54;5.50;;;3.60;;
43014;SDS011;28637;50.554;7.032;2022-10-17T20:44:54;4.90;;;3.20;;
43014;SDS011;28637;50.554;7.032;2022-10-17T20:49:56;3.80;;;3.35;;
43014;SDS011;28637;50.554;7.032;2022-10-17T20:54:57;6.43;;;3.60;;
43014;SDS011;28637;50.554;7.032;2022-10-17T20:59:57;6.03;;;3.30;;
43014;SDS011;28637;50.554;7.032;2022-10-17T21:04:58;5.60;;;3.27;;
43014;SDS011;28637;50.554;7.032;2022-10-17T21:09:58;6.60;;;3.50;;
43014;SDS011;28637;50.554;7.032;2022-10-17T21:14:59;4.07;;;3.30;;
43014;SDS011;28637;50.554;7.032;2022-10-17T21:20:00;6.07;;;3.10;;
43014;SDS011;28637;50.554;7.032;2022-10-17T21:25:01;4.87;;;3.50;;
43014;SDS011;28637;50.554;7.032;2022-10-17T21:30:01;5.30;;;3.30;;
43014;SDS011;28637;50.554;7.032;2022-10-17T21:35:02;6.63;;;3.40;;
43014;SDS011;28637;50.554;7.032;2022-10-17T21:40:03;6.80;;;3.37;;
43014;SDS011;28637;50.554;7.032;2022-10-17T21:45:04;5.80;;;2.92;;
43014;SDS011;28637;50.554;7.032;2022-10-17T21:50:05;6.70;;;3.25;;
43014;SDS011;28637;50.554;7.032;2022-10-17T21:55:06;6.17;;;3.40;;
43014;SDS011;28637;50.554;7.032;2022-10-17T22:00:07;6.50;;;3.80;;
43014;SDS011;28637;50.554;7.032;2022-10-17T22:05:08;7.07;;;3.03;;
43014;SDS011;28637;50.554;7.032;2022-10-17T22:10:09;5.73;;;3.67;;
43014;SDS011;28637;50.554;7.032;2022-10-17T22:15:10;3.63;;;3.03;;
43014;SDS011;28637;50.554;7.032;2022-10-17T22:20:11;3.50;;;3.20;;
43014;SDS011;28637;50.554;7.032;2022-10-17T22:25:11;5.80;;;3.92;;
43014;SDS011;28637;50.554;7.032;2022-10-17T22:30:12;5.27;;;3.13;;
43014;SDS011;28637;50.554;7.032;2022-10-17T22:35:13;4.13;;;3.20;;
43014;SDS011;28637;50.554;7.032;2022-10-17T22:40:13;4.57;;;3.57;;
43014;SDS011;28637;50.554;7.032;2022-10-17T22:45:14;5.47;;;3.30;;
43014;SDS011;28637;50.554;7.032;2022-10-17T22:50:15;5.27;;;3.60;;
43014;SDS011;28637;50.554;7.032;2022-10-17T22:55:16;22.52;;;3.40;;
43014;SDS011;28637;50.554;7.032;2022-10-17T23:00:17;6.10;;;3.73;;
43014;SDS011;28637;50.554;7.032;2022-10-17T23:05:18;5.60;;;3.00;;
43014;SDS011;28637;50.554;7.032;2022-10-17T23:10:19;5.77;;;3.50;;
43014;SDS011;28637;50.554;7.032;2022-10-17T23:15:19;5.10;;;3.67;;
43014;SDS011;28637;50.554;7.032;2022-10-17T23:20:20;7.73;;;3.53;;
43014;SDS011;28637;50.554;7.032;2022-10-17T23:25:21;7.20;;;3.70;;
43014;SDS011;28637;50.554;7.032;2022-10-17T23:30:21;4.53;;;3.60;;
43014;SDS011;28637;50.554;7.032;2022-10-17T23:35:22;5.87;;;3.77;;
43014;SDS011;28637;50.554;7.032;2022-10-17T23:40:23;5.07;;;3.40;;
43014;SDS011;28637;50.554;7.032;2022-10-17T23:45:23;6.30;;;3.70;;
43014;SDS011;28637;50.554;7.032;2022-10-17T23:50:24;5.50;;;4.10;;
43014;SDS011;28637;50.554;7.032;2022-10-17T23:55:25;4.80;;;4.03;;
